sensor_id;sensor_type;location;lat;lon;timestamp;temperature;humidity
51988;DHT22;38003;52.012;4.346;2022-10-16T00:01:35;17.50;63.70
51988;DHT22;38003;52.012;4.346;2022-10-16T00:04:03;17.50;63.90
51988;DHT22;38003;52.012;4.346;2022-10-16T00:06:31;17.40;63.40
51988;DHT22;38003;52.012;4.346;2022-10-16T00:09:00;17.50;63.60
51988;DHT22;38003;52.012;4.346;2022-10-16T00:11:30;17.40;63.80
51988;DHT22;38003;52.012;4.346;2022-10-16T00:14:00;17.40;63.80
51988;DHT22;38003;52.012;4.346;2022-10-16T00:16:29;17.40;63.80
51988;DHT22;38003;52.012;4.346;2022-10-16T00:18:57;17.50;63.80
51988;DHT22;38003;52.012;4.346;2022-10-16T00:21:27;17.50;63.70
51988;DHT22;38003;52.012;4.346;2022-10-16T00:23:57;17.40;63.90
51988;DHT22;38003;52.012;4.346;2022-10-16T00:26:27;17.50;63.70
51988;DHT22;38003;52.012;4.346;2022-10-16T00:28:55;17.40;63.90
51988;DHT22;38003;52.012;4.346;2022-10-16T00:31:24;17.50;63.90
51988;DHT22;38003;52.012;4.346;2022-10-16T00:33:52;17.50;64.00
51988;DHT22;38003;52.012;4.346;2022-10-16T00:36:22;17.60;63.70
51988;DHT22;38003;52.012;4.346;2022-10-16T00:38:51;17.50;63.90
51988;DHT22;38003;52.012;4.346;2022-10-16T00:41:22;17.50;64.00
51988;DHT22;38003;52.012;4.346;2022-10-16T00:43:54;17.50;64.00
51988;DHT22;38003;52.012;4.346;2022-10-16T00:46:24;17.60;64.10
51988;DHT22;38003;52.012;4.346;2022-10-16T00:48:57;17.50;64.20
51988;DHT22;38003;52.012;4.346;2022-10-16T00:51:28;17.50;64.20
51988;DHT22;38003;52.012;4.346;2022-10-16T00:53:58;17.50;64.30
51988;DHT22;38003;52.012;4.346;2022-10-16T00:56:26;17.40;64.30
51988;DHT22;38003;52.012;4.346;2022-10-16T00:58:55;17.50;64.40
51988;DHT22;38003;52.012;4.346;2022-10-16T01:01:23;17.50;64.40
51988;DHT22;38003;52.012;4.346;2022-10-16T01:03:51;17.50;64.50
51988;DHT22;38003;52.012;4.346;2022-10-16T01:06:23;17.50;64.50
51988;DHT22;38003;52.012;4.346;2022-10-16T01:09:04;17.40;64.70
51988;DHT22;38003;52.012;4.346;2022-10-16T01:11:38;17.40;64.80
51988;DHT22;38003;52.012;4.346;2022-10-16T01:14:13;17.40;64.80
51988;DHT22;38003;52.012;4.346;2022-10-16T01:16:46;17.40;64.80
51988;DHT22;38003;52.012;4.346;2022-10-16T01:19:20;17.50;64.70
51988;DHT22;38003;52.012;4.346;2022-10-16T01:21:52;17.40;65.00
51988;DHT22;38003;52.012;4.346;2022-10-16T01:24:27;17.40;65.10
51988;DHT22;38003;52.012;4.346;2022-10-16T01:27:18;17.40;65.30
51988;DHT22;38003;52.012;4.346;2022-10-16T01:29:52;17.40;65.00
51988;DHT22;38003;52.012;4.346;2022-10-16T01:32:28;17.30;65.10
51988;DHT22;38003;52.012;4.346;2022-10-16T01:35:00;17.40;65.10
51988;DHT22;38003;52.012;4.346;2022-10-16T01:37:33;17.40;65.10
51988;DHT22;38003;52.012;4.346;2022-10-16T01:40:06;17.30;65.10
51988;DHT22;38003;52.012;4.346;2022-10-16T01:42:40;17.30;65.10
51988;DHT22;38003;52.012;4.346;2022-10-16T01:45:12;17.30;65.10
51988;DHT22;38003;52.012;4.346;2022-10-16T01:47:41;17.30;65.00
51988;DHT22;38003;52.012;4.346;2022-10-16T01:50:12;17.20;65.20
51988;DHT22;38003;52.012;4.346;2022-10-16T01:52:44;17.20;65.20
51988;DHT22;38003;52.012;4.346;2022-10-16T01:55:17;17.30;65.20
51988;DHT22;38003;52.012;4.346;2022-10-16T01:57:49;17.30;65.10
51988;DHT22;38003;52.012;4.346;2022-10-16T02:00:20;17.30;65.20
51988;DHT22;38003;52.012;4.346;2022-10-16T02:02:50;17.30;65.20
51988;DHT22;38003;52.012;4.346;2022-10-16T02:05:23;17.20;65.40
51988;DHT22;38003;52.012;4.346;2022-10-16T02:07:52;17.10;65.60
51988;DHT22;38003;52.012;4.346;2022-10-16T02:10:21;17.20;65.50
51988;DHT22;38003;52.012;4.346;2022-10-16T02:12:56;17.20;65.60
51988;DHT22;38003;52.012;4.346;2022-10-16T02:15:25;17.10;65.60
51988;DHT22;38003;52.012;4.346;2022-10-16T02:17:52;17.10;65.60
51988;DHT22;38003;52.012;4.346;2022-10-16T02:20:27;17.20;65.60
51988;DHT22;38003;52.012;4.346;2022-10-16T02:22:56;17.10;65.60
51988;DHT22;38003;52.012;4.346;2022-10-16T02:25:29;17.10;65.70
51988;DHT22;38003;52.012;4.346;2022-10-16T02:28:02;17.20;65.70
51988;DHT22;38003;52.012;4.346;2022-10-16T02:30:34;17.20;65.60
51988;DHT22;38003;52.012;4.346;2022-10-16T02:33:07;17.10;65.70
51988;DHT22;38003;52.012;4.346;2022-10-16T02:35:36;17.10;65.70
51988;DHT22;38003;52.012;4.346;2022-10-16T02:38:05;17.20;65.60
51988;DHT22;38003;52.012;4.346;2022-10-16T02:40:33;17.20;65.70
51988;DHT22;38003;52.012;4.346;2022-10-16T02:43:04;17.20;65.60
51988;DHT22;38003;52.012;4.346;2022-10-16T02:45:32;17.20;65.60
51988;DHT22;38003;52.012;4.346;2022-10-16T02:48:00;17.20;65.60
51988;DHT22;38003;52.012;4.346;2022-10-16T02:50:28;17.10;65.80
51988;DHT22;38003;52.012;4.346;2022-10-16T02:52:56;17.10;65.80
51988;DHT22;38003;52.012;4.346;2022-10-16T02:55:24;17.10;65.80
51988;DHT22;38003;52.012;4.346;2022-10-16T02:57:51;17.10;65.70
51988;DHT22;38003;52.012;4.346;2022-10-16T03:00:21;17.10;66.00
51988;DHT22;38003;52.012;4.346;2022-10-16T03:02:48;17.50;66.70
51988;DHT22;38003;52.012;4.346;2022-10-16T03:05:16;17.20;65.90
51988;DHT22;38003;52.012;4.346;2022-10-16T03:07:44;17.00;66.10
51988;DHT22;38003;52.012;4.346;2022-10-16T03:10:12;17.00;66.10
51988;DHT22;38003;52.012;4.346;2022-10-16T03:12:40;17.10;66.00
51988;DHT22;38003;52.012;4.346;2022-10-16T03:15:08;17.00;66.20
51988;DHT22;38003;52.012;4.346;2022-10-16T03:17:38;17.00;66.20
51988;DHT22;38003;52.012;4.346;2022-10-16T03:20:06;17.00;66.20
51988;DHT22;38003;52.012;4.346;2022-10-16T03:22:34;17.10;66.30
51988;DHT22;38003;52.012;4.346;2022-10-16T03:25:02;17.00;66.30
51988;DHT22;38003;52.012;4.346;2022-10-16T03:27:30;17.10;66.10
51988;DHT22;38003;52.012;4.346;2022-10-16T03:29:58;17.10;66.10
51988;DHT22;38003;52.012;4.346;2022-10-16T03:32:26;17.10;66.20
51988;DHT22;38003;52.012;4.346;2022-10-16T03:34:56;17.10;66.20
51988;DHT22;38003;52.012;4.346;2022-10-16T03:37:24;17.10;66.20
51988;DHT22;38003;52.012;4.346;2022-10-16T03:39:52;17.10;66.20
51988;DHT22;38003;52.012;4.346;2022-10-16T03:42:20;17.00;66.40
51988;DHT22;38003;52.012;4.346;2022-10-16T03:44:48;17.10;66.20
51988;DHT22;38003;52.012;4.346;2022-10-16T03:47:16;17.10;66.20
51988;DHT22;38003;52.012;4.346;2022-10-16T03:49:47;17.10;66.20
51988;DHT22;38003;52.012;4.346;2022-10-16T03:52:16;17.10;66.30
51988;DHT22;38003;52.012;4.346;2022-10-16T03:54:49;17.10;66.20
51988;DHT22;38003;52.012;4.346;2022-10-16T03:57:17;17.10;66.10
51988;DHT22;38003;52.012;4.346;2022-10-16T03:59:45;17.10;66.20
51988;DHT22;38003;52.012;4.346;2022-10-16T04:02:12;17.10;66.20
51988;DHT22;38003;52.012;4.346;2022-10-16T04:04:40;17.20;66.20
51988;DHT22;38003;52.012;4.346;2022-10-16T04:07:08;17.20;66.20
51988;DHT22;38003;52.012;4.346;2022-10-16T04:09:37;17.20;66.10
51988;DHT22;38003;52.012;4.346;2022-10-16T04:12:05;17.20;66.30
51988;DHT22;38003;52.012;4.346;2022-10-16T04:14:33;17.20;66.20
51988;DHT22;38003;52.012;4.346;2022-10-16T04:17:01;17.10;66.30
51988;DHT22;38003;52.012;4.346;2022-10-16T04:19:28;17.10;66.30
51988;DHT22;38003;52.012;4.346;2022-10-16T04:21:56;17.10;66.40
51988;DHT22;38003;52.012;4.346;2022-10-16T04:24:24;17.10;66.40
51988;DHT22;38003;52.012;4.346;2022-10-16T04:26:53;17.10;66.50
51988;DHT22;38003;52.012;4.346;2022-10-16T04:29:21;17.10;66.40
51988;DHT22;38003;52.012;4.346;2022-10-16T04:31:49;17.10;66.30
51988;DHT22;38003;52.012;4.346;2022-10-16T04:34:16;17.10;66.50
51988;DHT22;38003;52.012;4.346;2022-10-16T04:36:46;17.10;66.40
51988;DHT22;38003;52.012;4.346;2022-10-16T04:39:14;17.00;66.50
51988;DHT22;38003;52.012;4.346;2022-10-16T04:41:42;17.00;66.50
51988;DHT22;38003;52.012;4.346;2022-10-16T04:44:11;17.10;66.60
51988;DHT22;38003;52.012;4.346;2022-10-16T04:46:39;17.00;66.70
51988;DHT22;38003;52.012;4.346;2022-10-16T04:49:07;17.00;66.80
51988;DHT22;38003;52.012;4.346;2022-10-16T04:51:35;17.00;66.90
51988;DHT22;38003;52.012;4.346;2022-10-16T04:54:03;17.10;66.70
51988;DHT22;38003;52.012;4.346;2022-10-16T04:56:30;17.10;66.70
51988;DHT22;38003;52.012;4.346;2022-10-16T04:58:59;17.10;66.70
51988;DHT22;38003;52.012;4.346;2022-10-16T05:01:28;17.10;67.10
51988;DHT22;38003;52.012;4.346;2022-10-16T05:03:55;17.10;67.10
51988;DHT22;38003;52.012;4.346;2022-10-16T05:06:23;17.00;67.20
51988;DHT22;38003;52.012;4.346;2022-10-16T05:08:51;17.00;67.60
51988;DHT22;38003;52.012;4.346;2022-10-16T05:11:19;17.00;67.60
51988;DHT22;38003;52.012;4.346;2022-10-16T05:13:46;17.00;67.70
51988;DHT22;38003;52.012;4.346;2022-10-16T05:16:19;16.90;67.80
51988;DHT22;38003;52.012;4.346;2022-10-16T05:18:48;16.90;67.80
51988;DHT22;38003;52.012;4.346;2022-10-16T05:21:21;16.80;68.00
51988;DHT22;38003;52.012;4.346;2022-10-16T05:23:49;16.90;67.80
51988;DHT22;38003;52.012;4.346;2022-10-16T05:26:17;16.80;68.50
51988;DHT22;38003;52.012;4.346;2022-10-16T05:28:45;16.80;68.20
51988;DHT22;38003;52.012;4.346;2022-10-16T05:31:13;16.80;68.50
51988;DHT22;38003;52.012;4.346;2022-10-16T05:33:40;16.80;68.50
51988;DHT22;38003;52.012;4.346;2022-10-16T05:36:11;16.60;68.40
51988;DHT22;38003;52.012;4.346;2022-10-16T05:38:39;16.60;69.00
51988;DHT22;38003;52.012;4.346;2022-10-16T05:41:07;16.70;68.80
51988;DHT22;38003;52.012;4.346;2022-10-16T05:43:35;16.70;68.50
51988;DHT22;38003;52.012;4.346;2022-10-16T05:46:05;16.80;68.70
51988;DHT22;38003;52.012;4.346;2022-10-16T05:48:33;16.80;68.60
51988;DHT22;38003;52.012;4.346;2022-10-16T05:51:03;16.80;68.50
51988;DHT22;38003;52.012;4.346;2022-10-16T05:53:35;16.80;68.40
51988;DHT22;38003;52.012;4.346;2022-10-16T05:56:04;16.80;68.90
51988;DHT22;38003;52.012;4.346;2022-10-16T05:58:33;16.70;68.80
51988;DHT22;38003;52.012;4.346;2022-10-16T06:01:04;16.70;68.60
51988;DHT22;38003;52.012;4.346;2022-10-16T06:03:34;16.70;68.60
51988;DHT22;38003;52.012;4.346;2022-10-16T06:06:07;16.60;68.70
51988;DHT22;38003;52.012;4.346;2022-10-16T06:08:39;16.60;68.80
51988;DHT22;38003;52.012;4.346;2022-10-16T06:11:10;16.60;68.50
51988;DHT22;38003;52.012;4.346;2022-10-16T06:13:38;16.60;68.70
51988;DHT22;38003;52.012;4.346;2022-10-16T06:16:09;16.60;68.70
51988;DHT22;38003;52.012;4.346;2022-10-16T06:18:37;16.60;68.50
51988;DHT22;38003;52.012;4.346;2022-10-16T06:21:07;16.60;68.50
51988;DHT22;38003;52.012;4.346;2022-10-16T06:23:36;16.50;68.80
51988;DHT22;38003;52.012;4.346;2022-10-16T06:26:06;16.60;68.90
51988;DHT22;38003;52.012;4.346;2022-10-16T06:28:34;16.60;68.70
51988;DHT22;38003;52.012;4.346;2022-10-16T06:31:03;16.60;68.60
51988;DHT22;38003;52.012;4.346;2022-10-16T06:33:34;16.60;68.50
51988;DHT22;38003;52.012;4.346;2022-10-16T06:36:03;16.60;68.50
51988;DHT22;38003;52.012;4.346;2022-10-16T06:38:31;16.60;68.50
51988;DHT22;38003;52.012;4.346;2022-10-16T06:41:01;16.50;68.60
51988;DHT22;38003;52.012;4.346;2022-10-16T06:43:30;16.50;68.70
51988;DHT22;38003;52.012;4.346;2022-10-16T06:46:00;16.60;68.40
51988;DHT22;38003;52.012;4.346;2022-10-16T06:48:28;16.60;68.30
51988;DHT22;38003;52.012;4.346;2022-10-16T06:50:58;16.60;68.30
51988;DHT22;38003;52.012;4.346;2022-10-16T06:53:27;16.60;68.40
51988;DHT22;38003;52.012;4.346;2022-10-16T06:56:09;16.50;68.40
51988;DHT22;38003;52.012;4.346;2022-10-16T06:58:39;16.60;68.40
51988;DHT22;38003;52.012;4.346;2022-10-16T07:01:08;16.50;68.40
51988;DHT22;38003;52.012;4.346;2022-10-16T07:03:37;16.50;68.60
51988;DHT22;38003;52.012;4.346;2022-10-16T07:06:06;16.50;68.60
51988;DHT22;38003;52.012;4.346;2022-10-16T07:08:35;16.50;68.60
51988;DHT22;38003;52.012;4.346;2022-10-16T07:11:05;16.50;68.60
51988;DHT22;38003;52.012;4.346;2022-10-16T07:13:34;16.50;68.40
51988;DHT22;38003;52.012;4.346;2022-10-16T07:16:08;16.50;68.70
51988;DHT22;38003;52.012;4.346;2022-10-16T07:18:36;16.50;68.60
51988;DHT22;38003;52.012;4.346;2022-10-16T07:21:06;16.60;68.90
51988;DHT22;38003;52.012;4.346;2022-10-16T07:23:34;16.50;68.70
51988;DHT22;38003;52.012;4.346;2022-10-16T07:26:03;16.60;68.60
51988;DHT22;38003;52.012;4.346;2022-10-16T07:28:31;16.60;68.60
51988;DHT22;38003;52.012;4.346;2022-10-16T07:31:03;16.60;69.00
51988;DHT22;38003;52.012;4.346;2022-10-16T07:33:33;16.60;68.80
51988;DHT22;38003;52.012;4.346;2022-10-16T07:36:01;16.60;68.80
51988;DHT22;38003;52.012;4.346;2022-10-16T07:38:29;16.70;68.80
51988;DHT22;38003;52.012;4.346;2022-10-16T07:40:57;16.60;69.00
51988;DHT22;38003;52.012;4.346;2022-10-16T07:43:26;16.60;68.90
51988;DHT22;38003;52.012;4.346;2022-10-16T07:45:54;16.70;69.10
51988;DHT22;38003;52.012;4.346;2022-10-16T07:48:30;16.60;69.20
51988;DHT22;38003;52.012;4.346;2022-10-16T07:51:00;16.70;69.00
51988;DHT22;38003;52.012;4.346;2022-10-16T07:53:28;16.70;68.90
51988;DHT22;38003;52.012;4.346;2022-10-16T07:55:59;16.70;69.20
51988;DHT22;38003;52.012;4.346;2022-10-16T07:58:28;16.70;69.30
51988;DHT22;38003;52.012;4.346;2022-10-16T08:00:56;16.70;69.10
51988;DHT22;38003;52.012;4.346;2022-10-16T08:03:25;16.70;69.10
51988;DHT22;38003;52.012;4.346;2022-10-16T08:05:53;16.70;69.30
51988;DHT22;38003;52.012;4.346;2022-10-16T08:08:22;16.80;68.90
51988;DHT22;38003;52.012;4.346;2022-10-16T08:10:49;16.80;68.90
51988;DHT22;38003;52.012;4.346;2022-10-16T08:13:18;16.80;69.10
51988;DHT22;38003;52.012;4.346;2022-10-16T08:15:46;16.80;69.00
51988;DHT22;38003;52.012;4.346;2022-10-16T08:18:15;16.90;69.00
51988;DHT22;38003;52.012;4.346;2022-10-16T08:20:43;16.80;69.10
51988;DHT22;38003;52.012;4.346;2022-10-16T08:23:11;16.90;68.90
51988;DHT22;38003;52.012;4.346;2022-10-16T08:25:41;17.00;68.80
51988;DHT22;38003;52.012;4.346;2022-10-16T08:28:10;17.00;68.70
51988;DHT22;38003;52.012;4.346;2022-10-16T08:30:38;17.00;68.60
51988;DHT22;38003;52.012;4.346;2022-10-16T08:33:06;17.10;68.60
51988;DHT22;38003;52.012;4.346;2022-10-16T08:35:34;17.10;68.60
51988;DHT22;38003;52.012;4.346;2022-10-16T08:38:03;17.10;68.60
51988;DHT22;38003;52.012;4.346;2022-10-16T08:40:32;17.20;68.60
51988;DHT22;38003;52.012;4.346;2022-10-16T08:43:17;17.20;68.40
51988;DHT22;38003;52.012;4.346;2022-10-16T08:45:58;17.20;68.90
51988;DHT22;38003;52.012;4.346;2022-10-16T08:48:38;17.30;68.80
51988;DHT22;38003;52.012;4.346;2022-10-16T08:51:13;17.40;68.90
51988;DHT22;38003;52.012;4.346;2022-10-16T08:53:50;17.20;68.80
51988;DHT22;38003;52.012;4.346;2022-10-16T08:56:19;17.40;68.60
51988;DHT22;38003;52.012;4.346;2022-10-16T08:58:49;17.30;68.80
51988;DHT22;38003;52.012;4.346;2022-10-16T09:01:28;17.50;68.60
51988;DHT22;38003;52.012;4.346;2022-10-16T09:07:11;17.50;68.60
51988;DHT22;38003;52.012;4.346;2022-10-16T09:10:01;17.50;68.60
51988;DHT22;38003;52.012;4.346;2022-10-16T09:12:35;17.50;68.70
51988;DHT22;38003;52.012;4.346;2022-10-16T09:15:14;17.50;68.60
51988;DHT22;38003;52.012;4.346;2022-10-16T09:17:51;17.60;68.80
51988;DHT22;38003;52.012;4.346;2022-10-16T09:20:29;17.70;68.20
51988;DHT22;38003;52.012;4.346;2022-10-16T09:23:12;17.80;68.10
51988;DHT22;38003;52.012;4.346;2022-10-16T09:25:43;17.80;68.10
51988;DHT22;38003;52.012;4.346;2022-10-16T09:28:11;17.90;67.90
51988;DHT22;38003;52.012;4.346;2022-10-16T09:30:40;17.90;67.90
51988;DHT22;38003;52.012;4.346;2022-10-16T09:33:09;17.90;67.70
51988;DHT22;38003;52.012;4.346;2022-10-16T09:35:40;18.00;67.40
51988;DHT22;38003;52.012;4.346;2022-10-16T09:38:20;18.10;67.40
51988;DHT22;38003;52.012;4.346;2022-10-16T09:40:49;18.20;67.50
51988;DHT22;38003;52.012;4.346;2022-10-16T09:43:33;18.30;67.40
51988;DHT22;38003;52.012;4.346;2022-10-16T09:46:04;18.50;67.10
51988;DHT22;38003;52.012;4.346;2022-10-16T09:48:37;18.50;66.70
51988;DHT22;38003;52.012;4.346;2022-10-16T09:51:15;18.60;66.30
51988;DHT22;38003;52.012;4.346;2022-10-16T09:53:45;18.70;65.60
51988;DHT22;38003;52.012;4.346;2022-10-16T09:56:21;18.60;65.70
51988;DHT22;38003;52.012;4.346;2022-10-16T09:58:50;18.90;65.40
51988;DHT22;38003;52.012;4.346;2022-10-16T10:01:22;19.00;65.40
51988;DHT22;38003;52.012;4.346;2022-10-16T10:03:55;19.10;65.10
51988;DHT22;38003;52.012;4.346;2022-10-16T10:06:29;18.90;64.50
51988;DHT22;38003;52.012;4.346;2022-10-16T10:09:05;19.00;64.60
51988;DHT22;38003;52.012;4.346;2022-10-16T10:11:48;19.10;64.30
51988;DHT22;38003;52.012;4.346;2022-10-16T10:14:28;19.10;63.50
51988;DHT22;38003;52.012;4.346;2022-10-16T10:17:13;19.20;63.80
51988;DHT22;38003;52.012;4.346;2022-10-16T10:19:46;19.20;64.30
51988;DHT22;38003;52.012;4.346;2022-10-16T10:22:27;19.30;64.90
51988;DHT22;38003;52.012;4.346;2022-10-16T10:25:19;19.30;63.40
51988;DHT22;38003;52.012;4.346;2022-10-16T10:28:05;19.30;64.40
51988;DHT22;38003;52.012;4.346;2022-10-16T10:30:40;19.20;64.20
51988;DHT22;38003;52.012;4.346;2022-10-16T10:33:19;19.30;63.50
51988;DHT22;38003;52.012;4.346;2022-10-16T10:35:56;19.30;64.10
51988;DHT22;38003;52.012;4.346;2022-10-16T10:38:39;19.30;63.80
51988;DHT22;38003;52.012;4.346;2022-10-16T10:41:20;19.30;63.80
51988;DHT22;38003;52.012;4.346;2022-10-16T10:44:03;19.40;64.30
51988;DHT22;38003;52.012;4.346;2022-10-16T10:46:35;19.40;64.10
51988;DHT22;38003;52.012;4.346;2022-10-16T10:49:24;19.50;63.80
51988;DHT22;38003;52.012;4.346;2022-10-16T10:52:03;19.50;63.40
51988;DHT22;38003;52.012;4.346;2022-10-16T10:54:36;19.40;63.30
51988;DHT22;38003;52.012;4.346;2022-10-16T10:57:12;19.10;63.10
51988;DHT22;38003;52.012;4.346;2022-10-16T11:00:02;19.30;62.80
51988;DHT22;38003;52.012;4.346;2022-10-16T11:02:37;19.30;62.40
51988;DHT22;38003;52.012;4.346;2022-10-16T11:08:16;19.30;61.70
51988;DHT22;38003;52.012;4.346;2022-10-16T11:10:50;19.10;60.80
51988;DHT22;38003;52.012;4.346;2022-10-16T11:13:29;19.10;61.00
51988;DHT22;38003;52.012;4.346;2022-10-16T11:16:00;19.20;61.30
51988;DHT22;38003;52.012;4.346;2022-10-16T11:18:37;19.00;60.60
51988;DHT22;38003;52.012;4.346;2022-10-16T11:21:08;19.10;61.10
51988;DHT22;38003;52.012;4.346;2022-10-16T11:23:43;19.10;60.90
51988;DHT22;38003;52.012;4.346;2022-10-16T11:26:16;19.00;59.80
51988;DHT22;38003;52.012;4.346;2022-10-16T11:28:48;19.00;60.40
51988;DHT22;38003;52.012;4.346;2022-10-16T11:31:22;19.00;61.00
51988;DHT22;38003;52.012;4.346;2022-10-16T11:33:57;19.10;60.00
51988;DHT22;38003;52.012;4.346;2022-10-16T11:36:34;19.10;59.80
51988;DHT22;38003;52.012;4.346;2022-10-16T11:39:11;19.10;59.90
51988;DHT22;38003;52.012;4.346;2022-10-16T11:41:47;19.10;59.00
51988;DHT22;38003;52.012;4.346;2022-10-16T11:44:31;19.10;60.10
51988;DHT22;38003;52.012;4.346;2022-10-16T11:47:09;19.20;59.40
51988;DHT22;38003;52.012;4.346;2022-10-16T11:50:01;18.90;56.80
51988;DHT22;38003;52.012;4.346;2022-10-16T11:52:36;18.90;59.30
51988;DHT22;38003;52.012;4.346;2022-10-16T11:55:15;19.00;59.30
51988;DHT22;38003;52.012;4.346;2022-10-16T11:57:46;19.00;58.60
51988;DHT22;38003;52.012;4.346;2022-10-16T12:00:21;19.10;59.10
51988;DHT22;38003;52.012;4.346;2022-10-16T12:02:58;19.10;58.80
51988;DHT22;38003;52.012;4.346;2022-10-16T12:05:35;19.10;58.80
51988;DHT22;38003;52.012;4.346;2022-10-16T12:08:09;19.20;59.70
51988;DHT22;38003;52.012;4.346;2022-10-16T12:10:41;19.20;57.40
51988;DHT22;38003;52.012;4.346;2022-10-16T12:13:30;19.00;58.40
51988;DHT22;38003;52.012;4.346;2022-10-16T12:16:19;19.10;58.20
51988;DHT22;38003;52.012;4.346;2022-10-16T12:18:48;19.00;58.30
51988;DHT22;38003;52.012;4.346;2022-10-16T12:21:17;19.10;58.80
51988;DHT22;38003;52.012;4.346;2022-10-16T12:23:50;19.00;58.60
51988;DHT22;38003;52.012;4.346;2022-10-16T12:26:27;19.10;58.70
51988;DHT22;38003;52.012;4.346;2022-10-16T12:28:57;19.10;58.70
51988;DHT22;38003;52.012;4.346;2022-10-16T12:31:42;19.10;59.40
51988;DHT22;38003;52.012;4.346;2022-10-16T12:34:27;19.10;59.20
51988;DHT22;38003;52.012;4.346;2022-10-16T12:36:56;19.20;58.60
51988;DHT22;38003;52.012;4.346;2022-10-16T12:39:35;19.10;58.60
51988;DHT22;38003;52.012;4.346;2022-10-16T12:42:19;19.20;59.20
51988;DHT22;38003;52.012;4.346;2022-10-16T12:44:48;19.30;59.20
51988;DHT22;38003;52.012;4.346;2022-10-16T12:47:21;19.30;59.50
51988;DHT22;38003;52.012;4.346;2022-10-16T12:49:51;19.30;59.00
51988;DHT22;38003;52.012;4.346;2022-10-16T12:52:27;19.40;59.20
51988;DHT22;38003;52.012;4.346;2022-10-16T12:54:57;19.40;58.60
51988;DHT22;38003;52.012;4.346;2022-10-16T12:57:41;19.50;59.60
51988;DHT22;38003;52.012;4.346;2022-10-16T13:00:20;19.40;59.60
51988;DHT22;38003;52.012;4.346;2022-10-16T13:03:04;19.40;58.80
51988;DHT22;38003;52.012;4.346;2022-10-16T13:05:51;19.50;59.00
51988;DHT22;38003;52.012;4.346;2022-10-16T13:08:35;19.50;59.20
51988;DHT22;38003;52.012;4.346;2022-10-16T13:11:15;19.60;59.30
51988;DHT22;38003;52.012;4.346;2022-10-16T13:14:03;19.60;59.70
51988;DHT22;38003;52.012;4.346;2022-10-16T13:16:44;19.50;58.90
51988;DHT22;38003;52.012;4.346;2022-10-16T13:19:19;19.50;59.50
51988;DHT22;38003;52.012;4.346;2022-10-16T13:21:56;19.60;59.90
51988;DHT22;38003;52.012;4.346;2022-10-16T13:24:39;19.60;59.70
51988;DHT22;38003;52.012;4.346;2022-10-16T13:27:15;19.60;58.80
51988;DHT22;38003;52.012;4.346;2022-10-16T13:29:52;19.40;58.70
51988;DHT22;38003;52.012;4.346;2022-10-16T13:32:22;19.40;59.30
51988;DHT22;38003;52.012;4.346;2022-10-16T13:34:49;19.50;59.80
51988;DHT22;38003;52.012;4.346;2022-10-16T13:37:19;19.50;59.70
51988;DHT22;38003;52.012;4.346;2022-10-16T13:39:47;19.50;59.70
51988;DHT22;38003;52.012;4.346;2022-10-16T13:42:22;19.40;59.70
51988;DHT22;38003;52.012;4.346;2022-10-16T13:44:55;19.40;59.50
51988;DHT22;38003;52.012;4.346;2022-10-16T13:47:25;19.50;59.60
51988;DHT22;38003;52.012;4.346;2022-10-16T13:50:00;19.40;59.80
51988;DHT22;38003;52.012;4.346;2022-10-16T13:52:28;19.40;59.70
51988;DHT22;38003;52.012;4.346;2022-10-16T13:54:56;19.50;60.00
51988;DHT22;38003;52.012;4.346;2022-10-16T13:57:28;19.60;60.00
51988;DHT22;38003;52.012;4.346;2022-10-16T13:59:57;19.50;59.60
51988;DHT22;38003;52.012;4.346;2022-10-16T14:02:26;19.50;60.00
51988;DHT22;38003;52.012;4.346;2022-10-16T14:04:57;19.50;59.80
51988;DHT22;38003;52.012;4.346;2022-10-16T14:07:27;19.60;60.30
51988;DHT22;38003;52.012;4.346;2022-10-16T14:09:56;19.50;60.30
51988;DHT22;38003;52.012;4.346;2022-10-16T14:12:26;19.50;60.20
51988;DHT22;38003;52.012;4.346;2022-10-16T14:14:57;19.60;60.30
51988;DHT22;38003;52.012;4.346;2022-10-16T14:17:26;19.60;59.80
51988;DHT22;38003;52.012;4.346;2022-10-16T14:19:56;19.60;60.40
51988;DHT22;38003;52.012;4.346;2022-10-16T14:22:30;19.60;60.60
51988;DHT22;38003;52.012;4.346;2022-10-16T14:24:59;19.60;60.30
51988;DHT22;38003;52.012;4.346;2022-10-16T14:27:32;19.60;60.10
51988;DHT22;38003;52.012;4.346;2022-10-16T14:30:17;19.60;60.30
51988;DHT22;38003;52.012;4.346;2022-10-16T14:32:54;19.50;59.20
51988;DHT22;38003;52.012;4.346;2022-10-16T14:35:28;19.50;60.30
51988;DHT22;38003;52.012;4.346;2022-10-16T14:37:58;19.60;60.70
51988;DHT22;38003;52.012;4.346;2022-10-16T14:40:28;19.60;60.80
51988;DHT22;38003;52.012;4.346;2022-10-16T14:42:56;19.60;60.60
51988;DHT22;38003;52.012;4.346;2022-10-16T14:45:28;19.60;60.80
51988;DHT22;38003;52.012;4.346;2022-10-16T14:47:58;19.60;60.90
51988;DHT22;38003;52.012;4.346;2022-10-16T14:50:27;19.70;61.10
51988;DHT22;38003;52.012;4.346;2022-10-16T14:52:55;19.60;61.00
51988;DHT22;38003;52.012;4.346;2022-10-16T14:55:23;19.60;61.10
51988;DHT22;38003;52.012;4.346;2022-10-16T14:57:52;19.60;61.10
51988;DHT22;38003;52.012;4.346;2022-10-16T15:00:27;19.60;61.20
51988;DHT22;38003;52.012;4.346;2022-10-16T15:02:55;19.60;61.20
51988;DHT22;38003;52.012;4.346;2022-10-16T15:05:25;19.50;61.30
51988;DHT22;38003;52.012;4.346;2022-10-16T15:07:54;19.50;61.20
51988;DHT22;38003;52.012;4.346;2022-10-16T15:10:23;19.50;61.30
51988;DHT22;38003;52.012;4.346;2022-10-16T15:12:52;19.50;61.20
51988;DHT22;38003;52.012;4.346;2022-10-16T15:15:32;19.50;61.30
51988;DHT22;38003;52.012;4.346;2022-10-16T15:18:01;19.50;61.30
51988;DHT22;38003;52.012;4.346;2022-10-16T15:20:31;19.50;61.40
51988;DHT22;38003;52.012;4.346;2022-10-16T15:23:01;19.50;61.60
51988;DHT22;38003;52.012;4.346;2022-10-16T15:25:35;19.50;61.50
51988;DHT22;38003;52.012;4.346;2022-10-16T15:28:06;19.50;61.60
51988;DHT22;38003;52.012;4.346;2022-10-16T15:30:36;19.40;61.70
51988;DHT22;38003;52.012;4.346;2022-10-16T15:33:05;19.40;61.80
51988;DHT22;38003;52.012;4.346;2022-10-16T15:35:37;19.40;62.00
51988;DHT22;38003;52.012;4.346;2022-10-16T15:38:05;19.30;62.20
51988;DHT22;38003;52.012;4.346;2022-10-16T15:40:32;19.30;62.20
51988;DHT22;38003;52.012;4.346;2022-10-16T15:43:00;19.50;62.40
51988;DHT22;38003;52.012;4.346;2022-10-16T15:45:28;19.30;62.20
51988;DHT22;38003;52.012;4.346;2022-10-16T15:47:57;19.30;62.40
51988;DHT22;38003;52.012;4.346;2022-10-16T15:50:25;19.20;62.40
51988;DHT22;38003;52.012;4.346;2022-10-16T15:52:53;19.20;62.20
51988;DHT22;38003;52.012;4.346;2022-10-16T15:55:21;19.30;62.40
51988;DHT22;38003;52.012;4.346;2022-10-16T15:57:49;19.30;62.30
51988;DHT22;38003;52.012;4.346;2022-10-16T16:00:19;19.30;62.30
51988;DHT22;38003;52.012;4.346;2022-10-16T16:02:50;19.30;62.40
51988;DHT22;38003;52.012;4.346;2022-10-16T16:05:20;19.30;62.40